Shannon, Ireland

11:11 AM IST on October 20, 2014 (GMT +0100)
Shannon | Change Station
CLOSE
Current Station
Airport
Location: Shannon,
Elevation: 66 ft
Nearby Weather Stations

Elev 66 ft 52.70 °N, 8.92 °W | Updated 11 minutes ago

Mostly Cloudy
Mostly Cloudy
55 °F
Feels Like 55 °F
N
14
Wind Variable Wind from SSW

Today
High -- | Low -- °F
--% Chance of Precip.
Yesterday
High -- | Low -- °F
Precip. -- in
8:10 AM 6:29 PM
Waning Crescent, 12% visible
Pressure 29.92 in
Visibility 6.2 miles
Clouds Few 900 ft
Scattered Clouds 1600 ft
Mostly Cloudy 4000 ft
Dew Point 50 °F
Humidity 82%
Rainfall 0.00 in
Snow Depth Not available.
UV 1 out of 12
Pollen Not available.
Air Quality Not available.
Flu Activity Not available.
METAR EINN 201000Z 21012KT 9999 FEW009 SCT016 BKN040 13/10 Q1013 NOSIG

More Conditions Fewer Conditions

Pressure 29.92 in
Visibility 6.2 miles
Clouds Few 900 ft
Scattered Clouds 1600 ft
Mostly Cloudy 4000 ft
Dew Point 50 °F
Humidity 82%
Rainfall 0.00 in
Snow Depth Not available.
UV 1 out of 12
Pollen Not available.
Air Quality Not available.
Flu Activity Not available.
METAR EINN 201000Z 21012KT 9999 FEW009 SCT016 BKN040 13/10 Q1013 NOSIG

More Conditions Fewer Conditions

10-Day Weather Forecast

Almanac

Astronomy

Oct. 20, 2014 Rise Set
Actual Time 8:10 AM IST 6:29 PM IST
Civil Twilight 7:35 AM IST 7:04 PM IST
Nautical Twilight 6:55 AM IST 7:44 PM IST
Astronomical Twilight 6:15 AM IST 8:24 PM IST
Moon 4:20 AM IST 5:07 PM IST
Length of Visible Light 11h 29m
Length of Day
10h 19m
Tomorrow will be 3m 57s shorter.
Waning Crescent, 12% of the Moon is Illuminated
Today
Waning Crescent
Oct 23
New
Oct 30
First Quarter
Nov 6
Full
Nov 14
Last Quarter

Yesterday's Extremes

Country Highs Country Lows

Community

WunderPhotos

Upload Photos

1,763,326 photos uploaded!

Nearby

Snow Depth

Not available.

Earthquake Activity

City Distance Mag. Time & Date
No recent earthquake activity has been reported nearby.
Minimum magnitude displayed is 2.5.

Coastal Water Temperatures

Place Temperature
No Stations Reporting

Nearby Weather Stations